sensor_id;sensor_type;location;lat;lon;timestamp;P1;durP1;ratioP1;P2;durP2;ratioP2
6105;SDS011;3083;51.508;7.966;2022-12-08T00:00:08;42.83;;;17.60;;
6105;SDS011;3083;51.508;7.966;2022-12-08T00:02:36;44.67;;;16.03;;
6105;SDS011;3083;51.508;7.966;2022-12-08T00:05:03;40.40;;;16.97;;
6105;SDS011;3083;51.508;7.966;2022-12-08T00:07:48;49.73;;;17.97;;
6105;SDS011;3083;51.508;7.966;2022-12-08T00:10:32;39.60;;;16.90;;
6105;SDS011;3083;51.508;7.966;2022-12-08T00:13:00;44.97;;;16.20;;
6105;SDS011;3083;51.508;7.966;2022-12-08T00:15:28;46.00;;;15.80;;
6105;SDS011;3083;51.508;7.966;2022-12-08T00:17:54;46.30;;;18.10;;
6105;SDS011;3083;51.508;7.966;2022-12-08T00:20:21;39.13;;;15.90;;
6105;SDS011;3083;51.508;7.966;2022-12-08T00:22:48;38.33;;;15.93;;
6105;SDS011;3083;51.508;7.966;2022-12-08T00:25:15;44.40;;;16.00;;
6105;SDS011;3083;51.508;7.966;2022-12-08T00:27:42;37.43;;;15.67;;
6105;SDS011;3083;51.508;7.966;2022-12-08T00:30:11;46.47;;;17.23;;
6105;SDS011;3083;51.508;7.966;2022-12-08T00:32:38;41.40;;;17.27;;
6105;SDS011;3083;51.508;7.966;2022-12-08T00:35:05;42.00;;;15.73;;
6105;SDS011;3083;51.508;7.966;2022-12-08T00:37:33;36.20;;;14.60;;
6105;SDS011;3083;51.508;7.966;2022-12-08T00:40:00;36.87;;;13.60;;
6105;SDS011;3083;51.508;7.966;2022-12-08T00:42:29;39.27;;;15.57;;
6105;SDS011;3083;51.508;7.966;2022-12-08T00:44:56;37.57;;;15.27;;
6105;SDS011;3083;51.508;7.966;2022-12-08T00:47:24;37.43;;;14.43;;
6105;SDS011;3083;51.508;7.966;2022-12-08T00:49:51;40.40;;;13.97;;
6105;SDS011;3083;51.508;7.966;2022-12-08T00:52:18;40.37;;;16.27;;
6105;SDS011;3083;51.508;7.966;2022-12-08T00:54:45;33.27;;;13.80;;
6105;SDS011;3083;51.508;7.966;2022-12-08T00:57:12;37.50;;;14.30;;
6105;SDS011;3083;51.508;7.966;2022-12-08T00:59:39;33.70;;;14.10;;
6105;SDS011;3083;51.508;7.966;2022-12-08T01:02:06;37.57;;;14.50;;
6105;SDS011;3083;51.508;7.966;2022-12-08T01:04:34;37.20;;;14.67;;
6105;SDS011;3083;51.508;7.966;2022-12-08T01:07:01;38.40;;;13.63;;
6105;SDS011;3083;51.508;7.966;2022-12-08T01:09:28;39.67;;;15.30;;
6105;SDS011;3083;51.508;7.966;2022-12-08T01:11:55;39.47;;;15.03;;
6105;SDS011;3083;51.508;7.966;2022-12-08T01:14:22;37.97;;;15.23;;
6105;SDS011;3083;51.508;7.966;2022-12-08T01:16:49;41.57;;;16.00;;
6105;SDS011;3083;51.508;7.966;2022-12-08T01:19:17;36.90;;;13.93;;
6105;SDS011;3083;51.508;7.966;2022-12-08T01:21:45;36.93;;;14.53;;
6105;SDS011;3083;51.508;7.966;2022-12-08T01:24:13;39.73;;;15.63;;
6105;SDS011;3083;51.508;7.966;2022-12-08T01:26:41;47.83;;;14.73;;
6105;SDS011;3083;51.508;7.966;2022-12-08T01:29:08;35.80;;;14.77;;
6105;SDS011;3083;51.508;7.966;2022-12-08T01:31:36;37.83;;;14.90;;
6105;SDS011;3083;51.508;7.966;2022-12-08T01:34:04;33.93;;;12.83;;
6105;SDS011;3083;51.508;7.966;2022-12-08T01:36:32;35.00;;;14.80;;
6105;SDS011;3083;51.508;7.966;2022-12-08T01:39:03;37.57;;;15.53;;
6105;SDS011;3083;51.508;7.966;2022-12-08T01:41:32;39.83;;;14.80;;
6105;SDS011;3083;51.508;7.966;2022-12-08T01:44:02;38.40;;;14.30;;
6105;SDS011;3083;51.508;7.966;2022-12-08T01:46:49;38.97;;;15.63;;
6105;SDS011;3083;51.508;7.966;2022-12-08T01:49:19;35.03;;;14.10;;
6105;SDS011;3083;51.508;7.966;2022-12-08T01:51:54;35.00;;;13.60;;
6105;SDS011;3083;51.508;7.966;2022-12-08T01:54:42;46.63;;;15.43;;
6105;SDS011;3083;51.508;7.966;2022-12-08T01:57:13;34.80;;;14.23;;
6105;SDS011;3083;51.508;7.966;2022-12-08T01:59:45;38.27;;;13.70;;
6105;SDS011;3083;51.508;7.966;2022-12-08T02:02:14;36.07;;;13.00;;
6105;SDS011;3083;51.508;7.966;2022-12-08T02:04:41;37.03;;;14.20;;
6105;SDS011;3083;51.508;7.966;2022-12-08T02:07:09;39.43;;;15.00;;
6105;SDS011;3083;51.508;7.966;2022-12-08T02:09:38;36.73;;;14.20;;
6105;SDS011;3083;51.508;7.966;2022-12-08T02:12:08;38.90;;;15.07;;
6105;SDS011;3083;51.508;7.966;2022-12-08T02:14:36;33.00;;;13.90;;
6105;SDS011;3083;51.508;7.966;2022-12-08T02:17:05;38.23;;;13.93;;
6105;SDS011;3083;51.508;7.966;2022-12-08T02:22:47;30.27;;;12.33;;
6105;SDS011;3083;51.508;7.966;2022-12-08T02:25:26;36.47;;;14.90;;
6105;SDS011;3083;51.508;7.966;2022-12-08T02:28:07;31.03;;;12.80;;
6105;SDS011;3083;51.508;7.966;2022-12-08T02:30:48;32.50;;;13.43;;
6105;SDS011;3083;51.508;7.966;2022-12-08T02:36:29;29.20;;;12.10;;
6105;SDS011;3083;51.508;7.966;2022-12-08T02:39:02;26.27;;;12.00;;
6105;SDS011;3083;51.508;7.966;2022-12-08T02:41:37;38.30;;;14.00;;
6105;SDS011;3083;51.508;7.966;2022-12-08T02:44:10;28.00;;;11.90;;
6105;SDS011;3083;51.508;7.966;2022-12-08T02:46:44;30.20;;;11.80;;
6105;SDS011;3083;51.508;7.966;2022-12-08T02:49:16;26.60;;;12.00;;
6105;SDS011;3083;51.508;7.966;2022-12-08T02:51:42;33.90;;;12.70;;
6105;SDS011;3083;51.508;7.966;2022-12-08T02:54:09;29.07;;;12.30;;
6105;SDS011;3083;51.508;7.966;2022-12-08T02:56:43;25.87;;;11.13;;
6105;SDS011;3083;51.508;7.966;2022-12-08T02:59:24;31.00;;;11.93;;
6105;SDS011;3083;51.508;7.966;2022-12-08T03:02:11;23.43;;;10.50;;
6105;SDS011;3083;51.508;7.966;2022-12-08T03:04:57;21.97;;;10.40;;
6105;SDS011;3083;51.508;7.966;2022-12-08T03:07:34;22.80;;;9.63;;
6105;SDS011;3083;51.508;7.966;2022-12-08T03:10:08;22.27;;;10.90;;
6105;SDS011;3083;51.508;7.966;2022-12-08T03:12:39;26.07;;;11.13;;
6105;SDS011;3083;51.508;7.966;2022-12-08T03:15:12;21.90;;;9.50;;
6105;SDS011;3083;51.508;7.966;2022-12-08T03:17:44;24.40;;;10.97;;
6105;SDS011;3083;51.508;7.966;2022-12-08T03:20:17;21.83;;;9.50;;
6105;SDS011;3083;51.508;7.966;2022-12-08T03:22:47;25.07;;;9.60;;
6105;SDS011;3083;51.508;7.966;2022-12-08T03:25:16;28.17;;;10.00;;
6105;SDS011;3083;51.508;7.966;2022-12-08T03:27:46;22.83;;;9.23;;
6105;SDS011;3083;51.508;7.966;2022-12-08T03:30:14;22.83;;;9.63;;
6105;SDS011;3083;51.508;7.966;2022-12-08T03:32:42;20.00;;;9.60;;
6105;SDS011;3083;51.508;7.966;2022-12-08T03:35:16;21.00;;;8.50;;
6105;SDS011;3083;51.508;7.966;2022-12-08T03:37:48;21.03;;;8.77;;
6105;SDS011;3083;51.508;7.966;2022-12-08T03:40:16;18.83;;;9.27;;
6105;SDS011;3083;51.508;7.966;2022-12-08T03:42:45;24.13;;;8.97;;
6105;SDS011;3083;51.508;7.966;2022-12-08T03:45:12;23.13;;;9.70;;
6105;SDS011;3083;51.508;7.966;2022-12-08T03:47:40;28.00;;;9.57;;
6105;SDS011;3083;51.508;7.966;2022-12-08T03:50:07;22.80;;;9.30;;
6105;SDS011;3083;51.508;7.966;2022-12-08T03:52:36;28.10;;;10.77;;
6105;SDS011;3083;51.508;7.966;2022-12-08T03:55:03;23.90;;;10.20;;
6105;SDS011;3083;51.508;7.966;2022-12-08T03:57:31;24.10;;;10.20;;
6105;SDS011;3083;51.508;7.966;2022-12-08T03:59:58;20.77;;;9.63;;
6105;SDS011;3083;51.508;7.966;2022-12-08T04:02:25;24.70;;;9.90;;
6105;SDS011;3083;51.508;7.966;2022-12-08T04:04:52;28.17;;;11.83;;
6105;SDS011;3083;51.508;7.966;2022-12-08T04:07:19;26.23;;;10.20;;
6105;SDS011;3083;51.508;7.966;2022-12-08T04:09:48;28.30;;;11.30;;
6105;SDS011;3083;51.508;7.966;2022-12-08T04:12:15;24.27;;;10.33;;
6105;SDS011;3083;51.508;7.966;2022-12-08T04:14:41;27.33;;;10.70;;
6105;SDS011;3083;51.508;7.966;2022-12-08T04:17:09;26.10;;;10.43;;
6105;SDS011;3083;51.508;7.966;2022-12-08T04:19:36;24.90;;;10.63;;
6105;SDS011;3083;51.508;7.966;2022-12-08T04:22:04;22.20;;;9.37;;
6105;SDS011;3083;51.508;7.966;2022-12-08T04:24:31;25.03;;;10.53;;
6105;SDS011;3083;51.508;7.966;2022-12-08T04:27:00;24.23;;;10.37;;
6105;SDS011;3083;51.508;7.966;2022-12-08T04:29:27;24.40;;;10.43;;
6105;SDS011;3083;51.508;7.966;2022-12-08T04:31:54;23.70;;;10.30;;
6105;SDS011;3083;51.508;7.966;2022-12-08T04:34:20;22.70;;;10.10;;
6105;SDS011;3083;51.508;7.966;2022-12-08T04:36:47;28.03;;;10.90;;
6105;SDS011;3083;51.508;7.966;2022-12-08T04:39:14;24.43;;;11.23;;
6105;SDS011;3083;51.508;7.966;2022-12-08T04:41:41;25.10;;;9.90;;
6105;SDS011;3083;51.508;7.966;2022-12-08T04:44:09;27.13;;;10.37;;
6105;SDS011;3083;51.508;7.966;2022-12-08T04:46:36;26.23;;;10.83;;
6105;SDS011;3083;51.508;7.966;2022-12-08T04:49:03;22.43;;;9.73;;
6105;SDS011;3083;51.508;7.966;2022-12-08T04:51:30;27.97;;;10.57;;
6105;SDS011;3083;51.508;7.966;2022-12-08T04:53:57;26.13;;;9.30;;
6105;SDS011;3083;51.508;7.966;2022-12-08T04:56:24;27.77;;;10.80;;
6105;SDS011;3083;51.508;7.966;2022-12-08T04:58:51;24.97;;;8.60;;
6105;SDS011;3083;51.508;7.966;2022-12-08T05:01:19;26.57;;;10.20;;
6105;SDS011;3083;51.508;7.966;2022-12-08T05:03:47;25.43;;;10.87;;
6105;SDS011;3083;51.508;7.966;2022-12-08T05:06:14;24.43;;;9.70;;
6105;SDS011;3083;51.508;7.966;2022-12-08T05:08:41;22.80;;;10.13;;
6105;SDS011;3083;51.508;7.966;2022-12-08T05:11:09;25.50;;;10.10;;
6105;SDS011;3083;51.508;7.966;2022-12-08T05:13:37;23.10;;;9.60;;
6105;SDS011;3083;51.508;7.966;2022-12-08T05:16:05;23.13;;;9.07;;
6105;SDS011;3083;51.508;7.966;2022-12-08T05:18:35;27.17;;;9.23;;
6105;SDS011;3083;51.508;7.966;2022-12-08T05:21:03;24.30;;;9.77;;
6105;SDS011;3083;51.508;7.966;2022-12-08T05:23:31;21.90;;;9.10;;
6105;SDS011;3083;51.508;7.966;2022-12-08T05:25:58;26.67;;;8.97;;
6105;SDS011;3083;51.508;7.966;2022-12-08T05:28:25;21.63;;;9.43;;
6105;SDS011;3083;51.508;7.966;2022-12-08T05:30:52;24.90;;;9.33;;
6105;SDS011;3083;51.508;7.966;2022-12-08T05:33:19;24.40;;;9.60;;
6105;SDS011;3083;51.508;7.966;2022-12-08T05:35:48;22.27;;;9.07;;
6105;SDS011;3083;51.508;7.966;2022-12-08T05:38:15;19.13;;;8.57;;
6105;SDS011;3083;51.508;7.966;2022-12-08T05:40:42;27.13;;;9.77;;
6105;SDS011;3083;51.508;7.966;2022-12-08T05:43:09;25.37;;;10.40;;
6105;SDS011;3083;51.508;7.966;2022-12-08T05:45:36;21.93;;;9.70;;
6105;SDS011;3083;51.508;7.966;2022-12-08T05:48:03;22.60;;;9.00;;
6105;SDS011;3083;51.508;7.966;2022-12-08T05:50:30;22.23;;;9.47;;
6105;SDS011;3083;51.508;7.966;2022-12-08T05:52:59;26.50;;;9.87;;
6105;SDS011;3083;51.508;7.966;2022-12-08T05:55:26;20.57;;;9.87;;
6105;SDS011;3083;51.508;7.966;2022-12-08T05:57:53;30.60;;;10.60;;
6105;SDS011;3083;51.508;7.966;2022-12-08T06:00:20;22.17;;;9.90;;
6105;SDS011;3083;51.508;7.966;2022-12-08T06:02:47;23.47;;;8.90;;
6105;SDS011;3083;51.508;7.966;2022-12-08T06:05:14;26.50;;;8.70;;
6105;SDS011;3083;51.508;7.966;2022-12-08T06:07:41;25.63;;;10.40;;
6105;SDS011;3083;51.508;7.966;2022-12-08T06:10:10;24.67;;;10.63;;
6105;SDS011;3083;51.508;7.966;2022-12-08T06:12:38;26.67;;;9.80;;
6105;SDS011;3083;51.508;7.966;2022-12-08T06:15:05;23.00;;;9.93;;
6105;SDS011;3083;51.508;7.966;2022-12-08T06:17:33;21.07;;;9.20;;
6105;SDS011;3083;51.508;7.966;2022-12-08T06:20:00;19.93;;;9.07;;
6105;SDS011;3083;51.508;7.966;2022-12-08T06:22:27;22.00;;;8.87;;
6105;SDS011;3083;51.508;7.966;2022-12-08T06:24:55;26.70;;;9.10;;
6105;SDS011;3083;51.508;7.966;2022-12-08T06:27:23;25.13;;;9.80;;
6105;SDS011;3083;51.508;7.966;2022-12-08T06:29:50;21.70;;;8.17;;
6105;SDS011;3083;51.508;7.966;2022-12-08T06:32:17;19.13;;;8.47;;
6105;SDS011;3083;51.508;7.966;2022-12-08T06:34:44;19.30;;;8.83;;
6105;SDS011;3083;51.508;7.966;2022-12-08T06:37:11;20.63;;;7.47;;
6105;SDS011;3083;51.508;7.966;2022-12-08T06:39:39;22.20;;;8.67;;
6105;SDS011;3083;51.508;7.966;2022-12-08T06:42:06;21.00;;;8.90;;
6105;SDS011;3083;51.508;7.966;2022-12-08T06:44:51;19.03;;;8.13;;
6105;SDS011;3083;51.508;7.966;2022-12-08T06:47:19;16.83;;;7.33;;
6105;SDS011;3083;51.508;7.966;2022-12-08T06:49:46;17.40;;;7.30;;
6105;SDS011;3083;51.508;7.966;2022-12-08T06:52:13;20.90;;;8.30;;
6105;SDS011;3083;51.508;7.966;2022-12-08T06:54:40;18.03;;;7.63;;
6105;SDS011;3083;51.508;7.966;2022-12-08T06:57:07;15.97;;;7.13;;
6105;SDS011;3083;51.508;7.966;2022-12-08T06:59:34;20.93;;;8.80;;
6105;SDS011;3083;51.508;7.966;2022-12-08T07:02:02;23.43;;;7.83;;
6105;SDS011;3083;51.508;7.966;2022-12-08T07:04:29;20.93;;;7.90;;
6105;SDS011;3083;51.508;7.966;2022-12-08T07:06:56;17.50;;;7.50;;
6105;SDS011;3083;51.508;7.966;2022-12-08T07:09:23;17.20;;;8.00;;
6105;SDS011;3083;51.508;7.966;2022-12-08T07:11:50;17.77;;;6.80;;
6105;SDS011;3083;51.508;7.966;2022-12-08T07:14:17;18.30;;;7.33;;
6105;SDS011;3083;51.508;7.966;2022-12-08T07:16:47;18.43;;;7.97;;
6105;SDS011;3083;51.508;7.966;2022-12-08T07:19:15;16.77;;;7.83;;
6105;SDS011;3083;51.508;7.966;2022-12-08T07:21:42;16.40;;;6.77;;
6105;SDS011;3083;51.508;7.966;2022-12-08T07:24:09;18.03;;;7.70;;
6105;SDS011;3083;51.508;7.966;2022-12-08T07:26:36;18.37;;;7.83;;
6105;SDS011;3083;51.508;7.966;2022-12-08T07:29:04;17.27;;;7.63;;
6105;SDS011;3083;51.508;7.966;2022-12-08T07:31:31;23.17;;;7.97;;
6105;SDS011;3083;51.508;7.966;2022-12-08T07:33:58;15.57;;;6.07;;
6105;SDS011;3083;51.508;7.966;2022-12-08T07:36:26;18.10;;;6.70;;
6105;SDS011;3083;51.508;7.966;2022-12-08T07:38:53;18.70;;;6.90;;
6105;SDS011;3083;51.508;7.966;2022-12-08T07:41:21;15.90;;;7.00;;
6105;SDS011;3083;51.508;7.966;2022-12-08T07:43:49;15.87;;;6.40;;
6105;SDS011;3083;51.508;7.966;2022-12-08T07:46:18;17.80;;;6.67;;
6105;SDS011;3083;51.508;7.966;2022-12-08T07:48:46;17.30;;;6.87;;
6105;SDS011;3083;51.508;7.966;2022-12-08T07:51:13;17.77;;;6.50;;
6105;SDS011;3083;51.508;7.966;2022-12-08T07:53:43;17.20;;;7.23;;
6105;SDS011;3083;51.508;7.966;2022-12-08T07:56:12;19.40;;;7.17;;
6105;SDS011;3083;51.508;7.966;2022-12-08T07:58:39;19.40;;;7.13;;
6105;SDS011;3083;51.508;7.966;2022-12-08T08:01:16;13.67;;;6.47;;
6105;SDS011;3083;51.508;7.966;2022-12-08T08:03:45;16.80;;;7.00;;
6105;SDS011;3083;51.508;7.966;2022-12-08T08:06:12;19.60;;;7.63;;
6105;SDS011;3083;51.508;7.966;2022-12-08T08:08:39;16.10;;;6.60;;
6105;SDS011;3083;51.508;7.966;2022-12-08T08:11:07;15.20;;;6.40;;
6105;SDS011;3083;51.508;7.966;2022-12-08T08:13:34;16.83;;;6.80;;
6105;SDS011;3083;51.508;7.966;2022-12-08T08:16:02;21.70;;;7.80;;
6105;SDS011;3083;51.508;7.966;2022-12-08T08:18:30;20.07;;;8.17;;
6105;SDS011;3083;51.508;7.966;2022-12-08T08:20:58;20.03;;;7.87;;
6105;SDS011;3083;51.508;7.966;2022-12-08T08:23:25;16.77;;;6.83;;
6105;SDS011;3083;51.508;7.966;2022-12-08T08:25:53;21.50;;;8.83;;
6105;SDS011;3083;51.508;7.966;2022-12-08T08:28:21;17.63;;;8.30;;
6105;SDS011;3083;51.508;7.966;2022-12-08T08:30:48;24.00;;;9.67;;
6105;SDS011;3083;51.508;7.966;2022-12-08T08:33:15;18.40;;;8.77;;
6105;SDS011;3083;51.508;7.966;2022-12-08T08:35:42;17.47;;;8.17;;
6105;SDS011;3083;51.508;7.966;2022-12-08T08:38:09;20.83;;;8.23;;
6105;SDS011;3083;51.508;7.966;2022-12-08T08:40:36;22.50;;;8.77;;
6105;SDS011;3083;51.508;7.966;2022-12-08T08:43:03;19.80;;;7.73;;
6105;SDS011;3083;51.508;7.966;2022-12-08T08:45:32;23.77;;;7.70;;
6105;SDS011;3083;51.508;7.966;2022-12-08T08:47:59;18.47;;;7.20;;
6105;SDS011;3083;51.508;7.966;2022-12-08T08:50:26;17.60;;;7.17;;
6105;SDS011;3083;51.508;7.966;2022-12-08T08:52:53;22.90;;;8.67;;
6105;SDS011;3083;51.508;7.966;2022-12-08T08:55:20;21.63;;;8.70;;
6105;SDS011;3083;51.508;7.966;2022-12-08T08:57:47;18.30;;;7.10;;
6105;SDS011;3083;51.508;7.966;2022-12-08T09:00:14;20.03;;;6.93;;
6105;SDS011;3083;51.508;7.966;2022-12-08T09:02:43;20.60;;;7.67;;
6105;SDS011;3083;51.508;7.966;2022-12-08T09:05:10;22.60;;;7.80;;
6105;SDS011;3083;51.508;7.966;2022-12-08T09:07:37;22.87;;;7.83;;
6105;SDS011;3083;51.508;7.966;2022-12-08T09:10:04;18.73;;;6.40;;
6105;SDS011;3083;51.508;7.966;2022-12-08T09:12:32;17.80;;;7.40;;
6105;SDS011;3083;51.508;7.966;2022-12-08T09:14:59;19.97;;;7.97;;
6105;SDS011;3083;51.508;7.966;2022-12-08T09:17:26;14.37;;;6.40;;
6105;SDS011;3083;51.508;7.966;2022-12-08T09:19:55;16.60;;;8.13;;
6105;SDS011;3083;51.508;7.966;2022-12-08T09:22:22;16.03;;;6.53;;
6105;SDS011;3083;51.508;7.966;2022-12-08T09:24:49;21.17;;;7.53;;
6105;SDS011;3083;51.508;7.966;2022-12-08T09:27:16;20.00;;;8.47;;
6105;SDS011;3083;51.508;7.966;2022-12-08T09:29:43;17.40;;;7.70;;
6105;SDS011;3083;51.508;7.966;2022-12-08T09:32:10;17.77;;;7.47;;
6105;SDS011;3083;51.508;7.966;2022-12-08T09:34:37;18.20;;;7.83;;
6105;SDS011;3083;51.508;7.966;2022-12-08T09:37:06;13.77;;;7.30;;
6105;SDS011;3083;51.508;7.966;2022-12-08T09:39:33;22.97;;;9.03;;
6105;SDS011;3083;51.508;7.966;2022-12-08T09:42:00;17.40;;;7.40;;
6105;SDS011;3083;51.508;7.966;2022-12-08T09:44:46;16.57;;;8.00;;
6105;SDS011;3083;51.508;7.966;2022-12-08T09:47:22;18.27;;;8.43;;
6105;SDS011;3083;51.508;7.966;2022-12-08T09:49:54;21.97;;;8.73;;
6105;SDS011;3083;51.508;7.966;2022-12-08T09:52:30;20.63;;;8.53;;
6105;SDS011;3083;51.508;7.966;2022-12-08T09:55:02;18.53;;;8.23;;
6105;SDS011;3083;51.508;7.966;2022-12-08T09:57:35;19.37;;;8.03;;
6105;SDS011;3083;51.508;7.966;2022-12-08T10:00:03;17.77;;;7.50;;
6105;SDS011;3083;51.508;7.966;2022-12-08T10:02:32;16.47;;;7.33;;
6105;SDS011;3083;51.508;7.966;2022-12-08T10:04:59;18.70;;;8.20;;
6105;SDS011;3083;51.508;7.966;2022-12-08T10:07:28;19.17;;;7.90;;
6105;SDS011;3083;51.508;7.966;2022-12-08T10:10:05;18.03;;;7.50;;
6105;SDS011;3083;51.508;7.966;2022-12-08T10:12:42;19.73;;;7.77;;
6105;SDS011;3083;51.508;7.966;2022-12-08T10:15:21;20.17;;;7.33;;
6105;SDS011;3083;51.508;7.966;2022-12-08T10:17:59;18.47;;;7.70;;
6105;SDS011;3083;51.508;7.966;2022-12-08T10:20:31;16.87;;;7.63;;
6105;SDS011;3083;51.508;7.966;2022-12-08T10:23:06;22.37;;;8.80;;
6105;SDS011;3083;51.508;7.966;2022-12-08T10:25:40;19.93;;;7.77;;
6105;SDS011;3083;51.508;7.966;2022-12-08T10:28:11;16.37;;;7.83;;
6105;SDS011;3083;51.508;7.966;2022-12-08T10:30:38;20.20;;;8.83;;
6105;SDS011;3083;51.508;7.966;2022-12-08T10:33:08;17.70;;;7.53;;
6105;SDS011;3083;51.508;7.966;2022-12-08T10:35:43;18.83;;;7.23;;
6105;SDS011;3083;51.508;7.966;2022-12-08T10:38:17;16.90;;;7.43;;
6105;SDS011;3083;51.508;7.966;2022-12-08T10:40:46;16.07;;;7.20;;
6105;SDS011;3083;51.508;7.966;2022-12-08T10:43:16;15.00;;;7.07;;
6105;SDS011;3083;51.508;7.966;2022-12-08T10:45:47;16.60;;;7.90;;
6105;SDS011;3083;51.508;7.966;2022-12-08T10:48:15;16.50;;;7.33;;
6105;SDS011;3083;51.508;7.966;2022-12-08T10:50:44;16.23;;;6.50;;
6105;SDS011;3083;51.508;7.966;2022-12-08T10:53:14;18.50;;;7.47;;
6105;SDS011;3083;51.508;7.966;2022-12-08T10:55:47;15.87;;;6.37;;
6105;SDS011;3083;51.508;7.966;2022-12-08T10:58:22;15.40;;;6.93;;
6105;SDS011;3083;51.508;7.966;2022-12-08T11:00:54;14.13;;;6.93;;
6105;SDS011;3083;51.508;7.966;2022-12-08T11:03:25;13.17;;;6.80;;
6105;SDS011;3083;51.508;7.966;2022-12-08T11:05:55;16.80;;;7.10;;
6105;SDS011;3083;51.508;7.966;2022-12-08T11:08:23;17.37;;;7.00;;
6105;SDS011;3083;51.508;7.966;2022-12-08T11:10:53;17.53;;;8.07;;
6105;SDS011;3083;51.508;7.966;2022-12-08T11:13:21;14.57;;;7.17;;
6105;SDS011;3083;51.508;7.966;2022-12-08T11:15:50;15.00;;;7.20;;
6105;SDS011;3083;51.508;7.966;2022-12-08T11:18:23;15.50;;;7.70;;
6105;SDS011;3083;51.508;7.966;2022-12-08T11:21:05;14.83;;;6.70;;
6105;SDS011;3083;51.508;7.966;2022-12-08T11:23:36;16.60;;;6.80;;
6105;SDS011;3083;51.508;7.966;2022-12-08T11:26:06;18.67;;;7.73;;
6105;SDS011;3083;51.508;7.966;2022-12-08T11:28:41;18.07;;;8.00;;
6105;SDS011;3083;51.508;7.966;2022-12-08T11:31:10;16.57;;;7.57;;
6105;SDS011;3083;51.508;7.966;2022-12-08T11:33:47;14.50;;;7.07;;
6105;SDS011;3083;51.508;7.966;2022-12-08T11:36:17;14.60;;;7.17;;
6105;SDS011;3083;51.508;7.966;2022-12-08T11:38:47;11.20;;;4.97;;
6105;SDS011;3083;51.508;7.966;2022-12-08T11:41:19;14.63;;;6.87;;
6105;SDS011;3083;51.508;7.966;2022-12-08T11:43:49;17.40;;;7.30;;
6105;SDS011;3083;51.508;7.966;2022-12-08T11:46:22;12.90;;;5.77;;
6105;SDS011;3083;51.508;7.966;2022-12-08T11:48:52;13.47;;;6.47;;
6105;SDS011;3083;51.508;7.966;2022-12-08T11:51:27;13.77;;;5.90;;
6105;SDS011;3083;51.508;7.966;2022-12-08T11:54:04;13.00;;;6.40;;
6105;SDS011;3083;51.508;7.966;2022-12-08T11:56:46;15.30;;;7.50;;
6105;SDS011;3083;51.508;7.966;2022-12-08T11:59:17;14.60;;;6.73;;
6105;SDS011;3083;51.508;7.966;2022-12-08T12:01:49;11.73;;;6.27;;
6105;SDS011;3083;51.508;7.966;2022-12-08T12:04:19;12.80;;;6.57;;
6105;SDS011;3083;51.508;7.966;2022-12-08T12:06:58;14.50;;;5.83;;
6105;SDS011;3083;51.508;7.966;2022-12-08T12:13:06;12.70;;;5.90;;
6105;SDS011;3083;51.508;7.966;2022-12-08T12:15:48;15.40;;;7.27;;
6105;SDS011;3083;51.508;7.966;2022-12-08T12:18:36;13.53;;;6.23;;
6105;SDS011;3083;51.508;7.966;2022-12-08T12:21:10;15.47;;;6.87;;
6105;SDS011;3083;51.508;7.966;2022-12-08T12:23:43;15.40;;;7.17;;
6105;SDS011;3083;51.508;7.966;2022-12-08T12:26:16;15.33;;;6.77;;
6105;SDS011;3083;51.508;7.966;2022-12-08T12:28:48;16.00;;;6.87;;
6105;SDS011;3083;51.508;7.966;2022-12-08T12:31:20;14.70;;;7.63;;
6105;SDS011;3083;51.508;7.966;2022-12-08T12:33:50;18.57;;;7.20;;
6105;SDS011;3083;51.508;7.966;2022-12-08T12:36:21;18.67;;;7.80;;
6105;SDS011;3083;51.508;7.966;2022-12-08T12:38:50;14.93;;;6.70;;
6105;SDS011;3083;51.508;7.966;2022-12-08T12:41:28;17.83;;;7.80;;
6105;SDS011;3083;51.508;7.966;2022-12-08T12:44:19;17.93;;;8.10;;
6105;SDS011;3083;51.508;7.966;2022-12-08T12:46:53;15.83;;;6.53;;
6105;SDS011;3083;51.508;7.966;2022-12-08T12:52:34;20.27;;;9.07;;
6105;SDS011;3083;51.508;7.966;2022-12-08T12:55:21;21.90;;;8.90;;
6105;SDS011;3083;51.508;7.966;2022-12-08T12:57:53;20.87;;;9.07;;
6105;SDS011;3083;51.508;7.966;2022-12-08T13:00:24;21.93;;;8.00;;
6105;SDS011;3083;51.508;7.966;2022-12-08T13:02:53;21.03;;;9.37;;
6105;SDS011;3083;51.508;7.966;2022-12-08T13:05:22;25.13;;;10.33;;
6105;SDS011;3083;51.508;7.966;2022-12-08T13:07:52;20.83;;;9.37;;
6105;SDS011;3083;51.508;7.966;2022-12-08T13:10:22;21.43;;;9.10;;
6105;SDS011;3083;51.508;7.966;2022-12-08T13:13:02;21.30;;;8.83;;
6105;SDS011;3083;51.508;7.966;2022-12-08T13:15:48;19.77;;;8.60;;
6105;SDS011;3083;51.508;7.966;2022-12-08T13:18:17;19.40;;;8.10;;
6105;SDS011;3083;51.508;7.966;2022-12-08T13:20:47;23.07;;;9.23;;
6105;SDS011;3083;51.508;7.966;2022-12-08T13:23:25;22.80;;;9.30;;
6105;SDS011;3083;51.508;7.966;2022-12-08T13:26:18;19.47;;;9.17;;
6105;SDS011;3083;51.508;7.966;2022-12-08T13:29:13;20.67;;;8.80;;
6105;SDS011;3083;51.508;7.966;2022-12-08T13:31:49;19.80;;;8.17;;
6105;SDS011;3083;51.508;7.966;2022-12-08T13:34:19;20.80;;;9.30;;
6105;SDS011;3083;51.508;7.966;2022-12-08T13:36:56;24.53;;;9.20;;
6105;SDS011;3083;51.508;7.966;2022-12-08T13:39:31;17.23;;;8.33;;
6105;SDS011;3083;51.508;7.966;2022-12-08T13:42:10;19.63;;;9.43;;
6105;SDS011;3083;51.508;7.966;2022-12-08T13:44:42;15.30;;;8.03;;
6105;SDS011;3083;51.508;7.966;2022-12-08T13:47:14;19.57;;;8.30;;
6105;SDS011;3083;51.508;7.966;2022-12-08T13:49:47;15.80;;;8.07;;
6105;SDS011;3083;51.508;7.966;2022-12-08T13:52:19;18.73;;;8.60;;
6105;SDS011;3083;51.508;7.966;2022-12-08T13:54:55;14.77;;;6.70;;
6105;SDS011;3083;51.508;7.966;2022-12-08T13:57:24;14.27;;;6.93;;
6105;SDS011;3083;51.508;7.966;2022-12-08T13:59:53;16.17;;;6.70;;
6105;SDS011;3083;51.508;7.966;2022-12-08T14:02:29;15.60;;;7.13;;
6105;SDS011;3083;51.508;7.966;2022-12-08T14:04:59;16.60;;;7.33;;
6105;SDS011;3083;51.508;7.966;2022-12-08T14:07:26;18.63;;;8.30;;
6105;SDS011;3083;51.508;7.966;2022-12-08T14:09:53;20.30;;;8.77;;
6105;SDS011;3083;51.508;7.966;2022-12-08T14:12:21;15.00;;;7.80;;
6105;SDS011;3083;51.508;7.966;2022-12-08T14:14:50;13.90;;;5.97;;
6105;SDS011;3083;51.508;7.966;2022-12-08T14:17:21;15.20;;;7.17;;
6105;SDS011;3083;51.508;7.966;2022-12-08T14:19:54;13.47;;;6.37;;
6105;SDS011;3083;51.508;7.966;2022-12-08T14:22:22;12.53;;;6.40;;
6105;SDS011;3083;51.508;7.966;2022-12-08T14:24:51;25.33;;;11.87;;
6105;SDS011;3083;51.508;7.966;2022-12-08T14:27:19;22.93;;;10.50;;
6105;SDS011;3083;51.508;7.966;2022-12-08T14:29:49;23.30;;;12.20;;
6105;SDS011;3083;51.508;7.966;2022-12-08T14:32:18;36.40;;;17.57;;
6105;SDS011;3083;51.508;7.966;2022-12-08T14:34:55;25.37;;;12.93;;
6105;SDS011;3083;51.508;7.966;2022-12-08T14:37:25;26.20;;;12.70;;
6105;SDS011;3083;51.508;7.966;2022-12-08T14:39:56;22.07;;;11.20;;
6105;SDS011;3083;51.508;7.966;2022-12-08T14:42:26;16.40;;;9.23;;
6105;SDS011;3083;51.508;7.966;2022-12-08T14:44:55;14.43;;;6.53;;
6105;SDS011;3083;51.508;7.966;2022-12-08T14:47:27;9.23;;;4.90;;
6105;SDS011;3083;51.508;7.966;2022-12-08T14:49:57;10.70;;;4.47;;
6105;SDS011;3083;51.508;7.966;2022-12-08T14:52:24;8.70;;;4.60;;
6105;SDS011;3083;51.508;7.966;2022-12-08T14:54:52;11.27;;;5.53;;
6105;SDS011;3083;51.508;7.966;2022-12-08T14:57:22;12.83;;;6.40;;
6105;SDS011;3083;51.508;7.966;2022-12-08T14:59:52;19.60;;;8.00;;
6105;SDS011;3083;51.508;7.966;2022-12-08T15:02:23;20.20;;;8.87;;
6105;SDS011;3083;51.508;7.966;2022-12-08T15:04:54;18.70;;;8.87;;
6105;SDS011;3083;51.508;7.966;2022-12-08T15:07:26;19.90;;;7.77;;
6105;SDS011;3083;51.508;7.966;2022-12-08T15:10:06;14.87;;;7.27;;
6105;SDS011;3083;51.508;7.966;2022-12-08T15:12:55;14.90;;;7.30;;
6105;SDS011;3083;51.508;7.966;2022-12-08T15:15:27;14.43;;;7.33;;
6105;SDS011;3083;51.508;7.966;2022-12-08T15:17:59;14.67;;;6.40;;
6105;SDS011;3083;51.508;7.966;2022-12-08T15:20:31;13.23;;;6.00;;
6105;SDS011;3083;51.508;7.966;2022-12-08T15:23:05;14.70;;;6.13;;
6105;SDS011;3083;51.508;7.966;2022-12-08T15:25:42;12.93;;;5.37;;
6105;SDS011;3083;51.508;7.966;2022-12-08T15:28:09;13.60;;;6.93;;